sensor_id;sensor_type;location;lat;lon;timestamp;P1;durP1;ratioP1;P2;durP2;ratioP2
13651;SDS011;6899;51.546;6.912;2023-04-24T00:01:24;2.78;;;1.90;;
13651;SDS011;6899;51.546;6.912;2023-04-24T00:03:51;2.20;;;1.67;;
13651;SDS011;6899;51.546;6.912;2023-04-24T00:06:18;2.85;;;1.85;;
13651;SDS011;6899;51.546;6.912;2023-04-24T00:08:45;2.35;;;1.67;;
13651;SDS011;6899;51.546;6.912;2023-04-24T00:11:12;2.55;;;2.00;;
13651;SDS011;6899;51.546;6.912;2023-04-24T00:13:39;2.30;;;1.80;;
13651;SDS011;6899;51.546;6.912;2023-04-24T00:16:05;2.63;;;1.70;;
13651;SDS011;6899;51.546;6.912;2023-04-24T00:18:33;2.92;;;1.75;;
13651;SDS011;6899;51.546;6.912;2023-04-24T00:21:00;2.22;;;1.75;;
13651;SDS011;6899;51.546;6.912;2023-04-24T00:23:42;2.28;;;1.77;;
13651;SDS011;6899;51.546;6.912;2023-04-24T00:26:15;1.73;;;1.48;;
13651;SDS011;6899;51.546;6.912;2023-04-24T00:28:42;2.45;;;1.70;;
13651;SDS011;6899;51.546;6.912;2023-04-24T00:31:08;1.73;;;1.42;;
13651;SDS011;6899;51.546;6.912;2023-04-24T00:33:36;1.63;;;1.50;;
13651;SDS011;6899;51.546;6.912;2023-04-24T00:36:03;1.73;;;1.48;;
13651;SDS011;6899;51.546;6.912;2023-04-24T00:38:30;2.58;;;1.90;;
13651;SDS011;6899;51.546;6.912;2023-04-24T00:40:57;2.38;;;1.73;;
13651;SDS011;6899;51.546;6.912;2023-04-24T00:43:24;2.33;;;1.90;;
13651;SDS011;6899;51.546;6.912;2023-04-24T00:45:51;2.20;;;2.00;;
13651;SDS011;6899;51.546;6.912;2023-04-24T00:48:18;2.45;;;2.25;;
13651;SDS011;6899;51.546;6.912;2023-04-24T00:50:48;3.05;;;2.13;;
13651;SDS011;6899;51.546;6.912;2023-04-24T00:53:15;3.28;;;2.50;;
13651;SDS011;6899;51.546;6.912;2023-04-24T00:55:50;3.42;;;2.30;;
13651;SDS011;6899;51.546;6.912;2023-04-24T00:58:18;3.63;;;2.28;;
13651;SDS011;6899;51.546;6.912;2023-04-24T01:00:45;3.28;;;2.25;;
13651;SDS011;6899;51.546;6.912;2023-04-24T01:03:12;2.92;;;2.33;;
13651;SDS011;6899;51.546;6.912;2023-04-24T01:05:39;5.10;;;2.42;;
13651;SDS011;6899;51.546;6.912;2023-04-24T01:08:07;3.90;;;2.55;;
13651;SDS011;6899;51.546;6.912;2023-04-24T01:10:35;5.22;;;2.53;;
13651;SDS011;6899;51.546;6.912;2023-04-24T01:13:03;5.13;;;2.85;;
13651;SDS011;6899;51.546;6.912;2023-04-24T01:15:33;6.22;;;3.15;;
13651;SDS011;6899;51.546;6.912;2023-04-24T01:18:00;5.85;;;3.40;;
13651;SDS011;6899;51.546;6.912;2023-04-24T01:20:27;4.63;;;3.10;;
13651;SDS011;6899;51.546;6.912;2023-04-24T01:22:56;7.00;;;3.38;;
13651;SDS011;6899;51.546;6.912;2023-04-24T01:25:23;6.03;;;4.20;;
13651;SDS011;6899;51.546;6.912;2023-04-24T01:27:51;6.22;;;4.10;;
13651;SDS011;6899;51.546;6.912;2023-04-24T01:30:18;6.35;;;4.32;;
13651;SDS011;6899;51.546;6.912;2023-04-24T01:32:45;10.45;;;5.13;;
13651;SDS011;6899;51.546;6.912;2023-04-24T01:35:12;7.90;;;4.78;;
13651;SDS011;6899;51.546;6.912;2023-04-24T01:37:38;7.78;;;5.53;;
13651;SDS011;6899;51.546;6.912;2023-04-24T01:40:07;6.65;;;5.72;;
13651;SDS011;6899;51.546;6.912;2023-04-24T01:42:35;7.75;;;6.28;;
13651;SDS011;6899;51.546;6.912;2023-04-24T01:45:02;7.82;;;5.20;;
13651;SDS011;6899;51.546;6.912;2023-04-24T01:47:31;13.40;;;6.53;;
13651;SDS011;6899;51.546;6.912;2023-04-24T01:49:58;8.20;;;6.22;;
13651;SDS011;6899;51.546;6.912;2023-04-24T01:52:26;9.60;;;6.70;;
13651;SDS011;6899;51.546;6.912;2023-04-24T01:54:53;10.20;;;6.72;;
13651;SDS011;6899;51.546;6.912;2023-04-24T01:57:22;10.23;;;6.70;;
13651;SDS011;6899;51.546;6.912;2023-04-24T01:59:49;9.70;;;6.65;;
13651;SDS011;6899;51.546;6.912;2023-04-24T02:02:17;9.07;;;6.82;;
13651;SDS011;6899;51.546;6.912;2023-04-24T02:04:49;9.35;;;6.13;;
13651;SDS011;6899;51.546;6.912;2023-04-24T02:07:18;9.70;;;6.55;;
13651;SDS011;6899;51.546;6.912;2023-04-24T02:09:45;11.32;;;7.38;;
13651;SDS011;6899;51.546;6.912;2023-04-24T02:12:12;9.23;;;6.45;;
13651;SDS011;6899;51.546;6.912;2023-04-24T02:14:40;9.38;;;6.97;;
13651;SDS011;6899;51.546;6.912;2023-04-24T02:17:08;9.23;;;6.82;;
13651;SDS011;6899;51.546;6.912;2023-04-24T02:19:38;9.27;;;7.15;;
13651;SDS011;6899;51.546;6.912;2023-04-24T02:22:05;11.32;;;7.25;;
13651;SDS011;6899;51.546;6.912;2023-04-24T02:24:31;9.65;;;7.05;;
13651;SDS011;6899;51.546;6.912;2023-04-24T02:26:58;7.80;;;6.60;;
13651;SDS011;6899;51.546;6.912;2023-04-24T02:29:25;13.60;;;8.32;;
13651;SDS011;6899;51.546;6.912;2023-04-24T02:31:53;12.05;;;7.72;;
13651;SDS011;6899;51.546;6.912;2023-04-24T02:34:29;12.55;;;8.07;;
13651;SDS011;6899;51.546;6.912;2023-04-24T02:36:55;11.93;;;8.27;;
13651;SDS011;6899;51.546;6.912;2023-04-24T02:39:22;10.90;;;7.97;;
13651;SDS011;6899;51.546;6.912;2023-04-24T02:41:49;10.80;;;8.25;;
13651;SDS011;6899;51.546;6.912;2023-04-24T02:44:16;12.60;;;8.60;;
13651;SDS011;6899;51.546;6.912;2023-04-24T02:46:46;14.13;;;8.70;;
13651;SDS011;6899;51.546;6.912;2023-04-24T02:49:14;12.82;;;9.95;;
13651;SDS011;6899;51.546;6.912;2023-04-24T02:51:41;12.77;;;9.40;;
13651;SDS011;6899;51.546;6.912;2023-04-24T02:54:08;13.43;;;10.30;;
13651;SDS011;6899;51.546;6.912;2023-04-24T02:56:35;14.32;;;9.55;;
13651;SDS011;6899;51.546;6.912;2023-04-24T02:59:01;17.95;;;10.23;;
13651;SDS011;6899;51.546;6.912;2023-04-24T03:01:28;14.63;;;10.02;;
13651;SDS011;6899;51.546;6.912;2023-04-24T03:03:55;16.77;;;10.70;;
13651;SDS011;6899;51.546;6.912;2023-04-24T03:06:24;18.75;;;11.75;;
13651;SDS011;6899;51.546;6.912;2023-04-24T03:08:52;18.65;;;11.77;;
13651;SDS011;6899;51.546;6.912;2023-04-24T03:11:18;15.65;;;11.13;;
13651;SDS011;6899;51.546;6.912;2023-04-24T03:13:57;15.50;;;11.40;;
13651;SDS011;6899;51.546;6.912;2023-04-24T03:16:24;22.50;;;12.77;;
13651;SDS011;6899;51.546;6.912;2023-04-24T03:18:50;18.33;;;11.65;;
13651;SDS011;6899;51.546;6.912;2023-04-24T03:21:17;18.10;;;12.43;;
13651;SDS011;6899;51.546;6.912;2023-04-24T03:23:45;16.83;;;11.75;;
13651;SDS011;6899;51.546;6.912;2023-04-24T03:26:12;19.88;;;11.63;;
13651;SDS011;6899;51.546;6.912;2023-04-24T03:28:39;17.80;;;12.43;;
13651;SDS011;6899;51.546;6.912;2023-04-24T03:31:05;21.27;;;13.18;;
13651;SDS011;6899;51.546;6.912;2023-04-24T03:33:32;18.15;;;12.73;;
13651;SDS011;6899;51.546;6.912;2023-04-24T03:35:59;18.65;;;12.77;;
13651;SDS011;6899;51.546;6.912;2023-04-24T03:38:26;23.15;;;13.32;;
13651;SDS011;6899;51.546;6.912;2023-04-24T03:40:54;19.73;;;13.77;;
13651;SDS011;6899;51.546;6.912;2023-04-24T03:43:21;22.30;;;14.32;;
13651;SDS011;6899;51.546;6.912;2023-04-24T03:45:47;20.17;;;13.20;;
13651;SDS011;6899;51.546;6.912;2023-04-24T03:48:14;24.55;;;14.27;;
13651;SDS011;6899;51.546;6.912;2023-04-24T03:50:41;19.48;;;13.30;;
13651;SDS011;6899;51.546;6.912;2023-04-24T03:53:08;18.98;;;13.25;;
13651;SDS011;6899;51.546;6.912;2023-04-24T03:55:34;24.65;;;13.20;;
13651;SDS011;6899;51.546;6.912;2023-04-24T03:58:02;19.88;;;12.35;;
13651;SDS011;6899;51.546;6.912;2023-04-24T04:00:29;17.65;;;12.05;;
13651;SDS011;6899;51.546;6.912;2023-04-24T04:02:58;24.98;;;13.75;;
13651;SDS011;6899;51.546;6.912;2023-04-24T04:05:28;21.60;;;13.35;;
13651;SDS011;6899;51.546;6.912;2023-04-24T04:07:54;21.70;;;13.65;;
13651;SDS011;6899;51.546;6.912;2023-04-24T04:10:21;18.90;;;13.27;;
13651;SDS011;6899;51.546;6.912;2023-04-24T04:12:48;18.95;;;13.45;;
13651;SDS011;6899;51.546;6.912;2023-04-24T04:15:16;17.98;;;13.18;;
13651;SDS011;6899;51.546;6.912;2023-04-24T04:17:43;18.73;;;13.02;;
13651;SDS011;6899;51.546;6.912;2023-04-24T04:20:10;21.40;;;12.75;;
13651;SDS011;6899;51.546;6.912;2023-04-24T04:22:37;23.00;;;12.77;;
13651;SDS011;6899;51.546;6.912;2023-04-24T04:25:04;20.35;;;13.20;;
13651;SDS011;6899;51.546;6.912;2023-04-24T04:27:34;18.38;;;12.02;;
13651;SDS011;6899;51.546;6.912;2023-04-24T04:30:01;19.63;;;12.63;;
13651;SDS011;6899;51.546;6.912;2023-04-24T04:32:31;17.77;;;12.05;;
13651;SDS011;6899;51.546;6.912;2023-04-24T04:34:58;21.17;;;13.27;;
13651;SDS011;6899;51.546;6.912;2023-04-24T04:37:27;18.25;;;12.85;;
13651;SDS011;6899;51.546;6.912;2023-04-24T04:39:54;16.17;;;11.38;;
13651;SDS011;6899;51.546;6.912;2023-04-24T04:42:22;22.40;;;12.27;;
13651;SDS011;6899;51.546;6.912;2023-04-24T04:44:49;17.08;;;12.10;;
13651;SDS011;6899;51.546;6.912;2023-04-24T04:47:20;18.50;;;12.63;;
13651;SDS011;6899;51.546;6.912;2023-04-24T04:49:49;21.85;;;12.15;;
13651;SDS011;6899;51.546;6.912;2023-04-24T04:52:16;15.60;;;11.00;;
13651;SDS011;6899;51.546;6.912;2023-04-24T04:54:43;18.08;;;11.30;;
13651;SDS011;6899;51.546;6.912;2023-04-24T04:57:11;15.13;;;11.13;;
13651;SDS011;6899;51.546;6.912;2023-04-24T04:59:38;18.67;;;11.43;;
13651;SDS011;6899;51.546;6.912;2023-04-24T05:02:06;19.02;;;10.70;;
13651;SDS011;6899;51.546;6.912;2023-04-24T05:04:32;15.80;;;10.43;;
13651;SDS011;6899;51.546;6.912;2023-04-24T05:07:06;18.77;;;11.50;;
13651;SDS011;6899;51.546;6.912;2023-04-24T05:09:33;14.32;;;10.60;;
13651;SDS011;6899;51.546;6.912;2023-04-24T05:12:00;18.30;;;10.70;;
13651;SDS011;6899;51.546;6.912;2023-04-24T05:14:27;15.40;;;10.88;;
13651;SDS011;6899;51.546;6.912;2023-04-24T05:16:53;13.77;;;10.30;;
13651;SDS011;6899;51.546;6.912;2023-04-24T05:19:20;15.75;;;9.85;;
13651;SDS011;6899;51.546;6.912;2023-04-24T05:21:47;13.57;;;10.68;;
13651;SDS011;6899;51.546;6.912;2023-04-24T05:24:15;13.57;;;10.18;;
13651;SDS011;6899;51.546;6.912;2023-04-24T05:26:42;15.48;;;10.20;;
13651;SDS011;6899;51.546;6.912;2023-04-24T05:29:08;12.93;;;9.43;;
13651;SDS011;6899;51.546;6.912;2023-04-24T05:31:35;14.20;;;9.77;;
13651;SDS011;6899;51.546;6.912;2023-04-24T05:34:02;13.13;;;10.07;;
13651;SDS011;6899;51.546;6.912;2023-04-24T05:36:28;15.40;;;10.38;;
13651;SDS011;6899;51.546;6.912;2023-04-24T05:38:55;14.30;;;9.85;;
13651;SDS011;6899;51.546;6.912;2023-04-24T05:41:23;14.80;;;10.32;;
13651;SDS011;6899;51.546;6.912;2023-04-24T05:43:50;13.05;;;9.98;;
13651;SDS011;6899;51.546;6.912;2023-04-24T05:46:26;14.23;;;10.57;;
13651;SDS011;6899;51.546;6.912;2023-04-24T05:48:53;14.30;;;10.93;;
13651;SDS011;6899;51.546;6.912;2023-04-24T05:51:20;13.68;;;10.45;;
13651;SDS011;6899;51.546;6.912;2023-04-24T05:53:46;16.60;;;11.05;;
13651;SDS011;6899;51.546;6.912;2023-04-24T05:56:16;20.17;;;12.48;;
13651;SDS011;6899;51.546;6.912;2023-04-24T05:58:47;16.45;;;11.90;;
13651;SDS011;6899;51.546;6.912;2023-04-24T06:01:23;15.57;;;11.30;;
13651;SDS011;6899;51.546;6.912;2023-04-24T06:03:52;17.10;;;11.10;;
13651;SDS011;6899;51.546;6.912;2023-04-24T06:06:19;17.02;;;10.85;;
13651;SDS011;6899;51.546;6.912;2023-04-24T06:08:46;13.95;;;10.90;;
13651;SDS011;6899;51.546;6.912;2023-04-24T06:11:13;14.65;;;10.45;;
13651;SDS011;6899;51.546;6.912;2023-04-24T06:13:39;13.98;;;11.00;;
13651;SDS011;6899;51.546;6.912;2023-04-24T06:16:07;13.68;;;10.77;;
13651;SDS011;6899;51.546;6.912;2023-04-24T06:18:34;20.58;;;12.38;;
13651;SDS011;6899;51.546;6.912;2023-04-24T06:21:01;15.88;;;11.80;;
13651;SDS011;6899;51.546;6.912;2023-04-24T06:23:28;16.15;;;11.65;;
13651;SDS011;6899;51.546;6.912;2023-04-24T06:25:58;14.25;;;11.32;;
13651;SDS011;6899;51.546;6.912;2023-04-24T06:28:25;17.23;;;12.27;;
13651;SDS011;6899;51.546;6.912;2023-04-24T06:30:52;16.60;;;11.25;;
13651;SDS011;6899;51.546;6.912;2023-04-24T06:33:20;19.48;;;12.13;;
13651;SDS011;6899;51.546;6.912;2023-04-24T06:35:53;12.70;;;10.80;;
13651;SDS011;6899;51.546;6.912;2023-04-24T06:38:26;16.27;;;11.32;;
13651;SDS011;6899;51.546;6.912;2023-04-24T06:40:56;14.95;;;11.15;;
13651;SDS011;6899;51.546;6.912;2023-04-24T06:43:28;15.65;;;11.60;;
13651;SDS011;6899;51.546;6.912;2023-04-24T06:45:57;19.42;;;11.52;;
13651;SDS011;6899;51.546;6.912;2023-04-24T06:48:26;16.02;;;12.80;;
13651;SDS011;6899;51.546;6.912;2023-04-24T06:50:52;14.77;;;10.88;;
13651;SDS011;6899;51.546;6.912;2023-04-24T06:53:19;13.75;;;10.18;;
13651;SDS011;6899;51.546;6.912;2023-04-24T06:55:52;12.18;;;9.55;;
13651;SDS011;6899;51.546;6.912;2023-04-24T06:58:19;12.63;;;9.88;;
13651;SDS011;6899;51.546;6.912;2023-04-24T07:00:49;15.82;;;9.32;;
13651;SDS011;6899;51.546;6.912;2023-04-24T07:03:16;12.63;;;9.05;;
13651;SDS011;6899;51.546;6.912;2023-04-24T07:05:44;12.52;;;8.68;;
13651;SDS011;6899;51.546;6.912;2023-04-24T07:08:11;11.82;;;9.38;;
13651;SDS011;6899;51.546;6.912;2023-04-24T07:10:38;13.75;;;9.68;;
13651;SDS011;6899;51.546;6.912;2023-04-24T07:13:05;13.40;;;9.75;;
13651;SDS011;6899;51.546;6.912;2023-04-24T07:15:33;12.00;;;9.50;;
13651;SDS011;6899;51.546;6.912;2023-04-24T07:18:00;11.57;;;8.57;;
13651;SDS011;6899;51.546;6.912;2023-04-24T07:20:27;15.55;;;8.75;;
13651;SDS011;6899;51.546;6.912;2023-04-24T07:22:58;12.20;;;8.07;;
13651;SDS011;6899;51.546;6.912;2023-04-24T07:25:24;13.68;;;7.65;;
13651;SDS011;6899;51.546;6.912;2023-04-24T07:27:51;7.88;;;5.85;;
13651;SDS011;6899;51.546;6.912;2023-04-24T07:30:19;7.72;;;5.63;;
13651;SDS011;6899;51.546;6.912;2023-04-24T07:32:45;6.13;;;4.82;;
13651;SDS011;6899;51.546;6.912;2023-04-24T07:35:15;6.05;;;4.28;;
13651;SDS011;6899;51.546;6.912;2023-04-24T07:37:42;5.75;;;4.60;;
13651;SDS011;6899;51.546;6.912;2023-04-24T07:40:19;5.57;;;4.00;;
13651;SDS011;6899;51.546;6.912;2023-04-24T07:42:47;6.65;;;4.00;;
13651;SDS011;6899;51.546;6.912;2023-04-24T07:45:14;4.43;;;3.15;;
13651;SDS011;6899;51.546;6.912;2023-04-24T07:47:41;4.35;;;2.50;;
13651;SDS011;6899;51.546;6.912;2023-04-24T07:50:09;3.13;;;2.08;;
13651;SDS011;6899;51.546;6.912;2023-04-24T07:52:36;2.58;;;2.15;;
13651;SDS011;6899;51.546;6.912;2023-04-24T07:55:03;2.83;;;1.63;;
13651;SDS011;6899;51.546;6.912;2023-04-24T07:57:31;2.50;;;2.30;;
13651;SDS011;6899;51.546;6.912;2023-04-24T07:59:58;3.22;;;2.05;;
13651;SDS011;6899;51.546;6.912;2023-04-24T08:02:25;2.83;;;1.70;;
13651;SDS011;6899;51.546;6.912;2023-04-24T08:04:52;2.10;;;1.85;;
13651;SDS011;6899;51.546;6.912;2023-04-24T08:07:19;2.67;;;2.25;;
13651;SDS011;6899;51.546;6.912;2023-04-24T08:09:46;2.28;;;2.03;;
13651;SDS011;6899;51.546;6.912;2023-04-24T08:12:13;3.50;;;2.63;;
13651;SDS011;6899;51.546;6.912;2023-04-24T08:14:47;4.75;;;2.45;;
13651;SDS011;6899;51.546;6.912;2023-04-24T08:17:14;2.92;;;2.60;;
13651;SDS011;6899;51.546;6.912;2023-04-24T08:19:42;3.55;;;2.47;;
13651;SDS011;6899;51.546;6.912;2023-04-24T08:22:13;2.90;;;2.20;;
13651;SDS011;6899;51.546;6.912;2023-04-24T08:24:40;4.32;;;2.47;;
13651;SDS011;6899;51.546;6.912;2023-04-24T08:27:07;2.92;;;2.30;;
13651;SDS011;6899;51.546;6.912;2023-04-24T08:29:34;3.67;;;2.67;;
13651;SDS011;6899;51.546;6.912;2023-04-24T08:32:02;2.90;;;2.60;;
13651;SDS011;6899;51.546;6.912;2023-04-24T08:34:29;6.18;;;3.47;;
13651;SDS011;6899;51.546;6.912;2023-04-24T08:36:56;7.35;;;3.25;;
13651;SDS011;6899;51.546;6.912;2023-04-24T08:39:23;5.88;;;3.97;;
13651;SDS011;6899;51.546;6.912;2023-04-24T08:41:49;7.03;;;5.57;;
13651;SDS011;6899;51.546;6.912;2023-04-24T08:44:18;5.70;;;5.03;;
13651;SDS011;6899;51.546;6.912;2023-04-24T08:46:49;6.53;;;5.85;;
13651;SDS011;6899;51.546;6.912;2023-04-24T08:49:17;7.93;;;5.95;;
13651;SDS011;6899;51.546;6.912;2023-04-24T08:51:50;6.80;;;4.70;;
13651;SDS011;6899;51.546;6.912;2023-04-24T08:54:18;7.03;;;6.05;;
13651;SDS011;6899;51.546;6.912;2023-04-24T08:56:45;5.20;;;4.20;;
13651;SDS011;6899;51.546;6.912;2023-04-24T08:59:14;4.82;;;4.35;;
13651;SDS011;6899;51.546;6.912;2023-04-24T09:01:41;5.47;;;3.03;;
13651;SDS011;6899;51.546;6.912;2023-04-24T09:04:11;9.27;;;3.63;;
13651;SDS011;6899;51.546;6.912;2023-04-24T09:06:41;3.35;;;2.90;;
13651;SDS011;6899;51.546;6.912;2023-04-24T09:09:08;3.40;;;2.28;;
13651;SDS011;6899;51.546;6.912;2023-04-24T09:11:36;3.08;;;2.00;;
13651;SDS011;6899;51.546;6.912;2023-04-24T09:14:03;2.92;;;2.13;;
13651;SDS011;6899;51.546;6.912;2023-04-24T09:16:31;2.72;;;2.13;;
13651;SDS011;6899;51.546;6.912;2023-04-24T09:18:58;2.95;;;2.30;;
13651;SDS011;6899;51.546;6.912;2023-04-24T09:21:25;2.78;;;2.50;;
13651;SDS011;6899;51.546;6.912;2023-04-24T09:24:00;2.63;;;1.90;;
13651;SDS011;6899;51.546;6.912;2023-04-24T09:26:29;3.67;;;2.22;;
13651;SDS011;6899;51.546;6.912;2023-04-24T09:28:58;5.35;;;4.00;;
13651;SDS011;6899;51.546;6.912;2023-04-24T09:31:31;5.90;;;4.13;;
13651;SDS011;6899;51.546;6.912;2023-04-24T09:33:59;7.55;;;4.88;;
13651;SDS011;6899;51.546;6.912;2023-04-24T09:36:33;7.57;;;4.72;;
13651;SDS011;6899;51.546;6.912;2023-04-24T09:39:04;8.07;;;4.95;;
13651;SDS011;6899;51.546;6.912;2023-04-24T09:41:33;6.93;;;5.05;;
13651;SDS011;6899;51.546;6.912;2023-04-24T09:44:10;8.70;;;6.47;;
13651;SDS011;6899;51.546;6.912;2023-04-24T09:46:38;7.50;;;5.00;;
13651;SDS011;6899;51.546;6.912;2023-04-24T09:49:08;8.90;;;5.35;;
13651;SDS011;6899;51.546;6.912;2023-04-24T09:51:37;7.55;;;5.47;;
13651;SDS011;6899;51.546;6.912;2023-04-24T09:54:11;7.10;;;4.97;;
13651;SDS011;6899;51.546;6.912;2023-04-24T09:56:47;7.30;;;5.25;;
13651;SDS011;6899;51.546;6.912;2023-04-24T09:59:15;7.53;;;5.65;;
13651;SDS011;6899;51.546;6.912;2023-04-24T10:01:49;6.57;;;4.95;;
13651;SDS011;6899;51.546;6.912;2023-04-24T10:04:17;8.38;;;6.18;;
13651;SDS011;6899;51.546;6.912;2023-04-24T10:06:45;8.70;;;5.70;;
13651;SDS011;6899;51.546;6.912;2023-04-24T10:09:15;8.85;;;5.90;;
13651;SDS011;6899;51.546;6.912;2023-04-24T10:11:42;9.45;;;6.20;;
13651;SDS011;6899;51.546;6.912;2023-04-24T10:14:10;8.65;;;7.10;;
13651;SDS011;6899;51.546;6.912;2023-04-24T10:16:39;11.73;;;6.72;;
13651;SDS011;6899;51.546;6.912;2023-04-24T10:19:12;10.15;;;7.47;;
13651;SDS011;6899;51.546;6.912;2023-04-24T10:21:43;13.60;;;7.13;;
13651;SDS011;6899;51.546;6.912;2023-04-24T10:24:11;9.32;;;6.53;;
13651;SDS011;6899;51.546;6.912;2023-04-24T10:26:46;11.75;;;7.80;;
13651;SDS011;6899;51.546;6.912;2023-04-24T10:29:14;13.63;;;7.43;;
13651;SDS011;6899;51.546;6.912;2023-04-24T10:31:43;12.82;;;8.13;;
13651;SDS011;6899;51.546;6.912;2023-04-24T10:34:11;14.15;;;8.02;;
13651;SDS011;6899;51.546;6.912;2023-04-24T10:36:39;14.48;;;8.63;;
13651;SDS011;6899;51.546;6.912;2023-04-24T10:39:10;13.23;;;9.15;;
13651;SDS011;6899;51.546;6.912;2023-04-24T10:41:39;20.00;;;9.45;;
13651;SDS011;6899;51.546;6.912;2023-04-24T10:44:08;16.33;;;9.35;;
13651;SDS011;6899;51.546;6.912;2023-04-24T10:46:36;15.85;;;8.55;;
13651;SDS011;6899;51.546;6.912;2023-04-24T10:49:03;18.98;;;9.68;;
13651;SDS011;6899;51.546;6.912;2023-04-24T10:51:44;20.15;;;8.55;;
13651;SDS011;6899;51.546;6.912;2023-04-24T10:54:22;17.95;;;8.73;;
13651;SDS011;6899;51.546;6.912;2023-04-24T10:56:49;19.05;;;8.27;;
13651;SDS011;6899;51.546;6.912;2023-04-24T10:59:27;17.67;;;7.75;;
13651;SDS011;6899;51.546;6.912;2023-04-24T11:02:02;21.42;;;7.32;;
13651;SDS011;6899;51.546;6.912;2023-04-24T11:04:29;16.00;;;7.57;;
13651;SDS011;6899;51.546;6.912;2023-04-24T11:06:57;17.05;;;7.30;;
13651;SDS011;6899;51.546;6.912;2023-04-24T11:09:25;22.95;;;8.23;;
13651;SDS011;6899;51.546;6.912;2023-04-24T11:12:02;19.15;;;7.22;;
13651;SDS011;6899;51.546;6.912;2023-04-24T11:14:35;16.15;;;8.07;;
13651;SDS011;6899;51.546;6.912;2023-04-24T11:17:29;14.80;;;8.23;;
13651;SDS011;6899;51.546;6.912;2023-04-24T11:20:00;15.73;;;7.55;;
13651;SDS011;6899;51.546;6.912;2023-04-24T11:22:28;12.15;;;6.00;;
13651;SDS011;6899;51.546;6.912;2023-04-24T11:24:59;14.95;;;6.40;;
13651;SDS011;6899;51.546;6.912;2023-04-24T11:27:27;11.98;;;5.55;;
13651;SDS011;6899;51.546;6.912;2023-04-24T11:30:00;15.85;;;6.25;;
13651;SDS011;6899;51.546;6.912;2023-04-24T11:32:29;18.83;;;6.63;;
13651;SDS011;6899;51.546;6.912;2023-04-24T11:34:57;13.38;;;6.15;;
13651;SDS011;6899;51.546;6.912;2023-04-24T11:37:26;11.25;;;6.57;;
13651;SDS011;6899;51.546;6.912;2023-04-24T11:39:54;15.27;;;7.00;;
13651;SDS011;6899;51.546;6.912;2023-04-24T11:42:22;17.85;;;9.95;;
13651;SDS011;6899;51.546;6.912;2023-04-24T11:44:51;8.63;;;4.40;;
13651;SDS011;6899;51.546;6.912;2023-04-24T11:47:20;9.63;;;4.88;;
13651;SDS011;6899;51.546;6.912;2023-04-24T11:49:54;13.27;;;5.40;;
13651;SDS011;6899;51.546;6.912;2023-04-24T11:52:20;8.52;;;5.13;;
13651;SDS011;6899;51.546;6.912;2023-04-24T11:54:48;9.88;;;4.80;;
13651;SDS011;6899;51.546;6.912;2023-04-24T11:57:15;9.82;;;3.88;;
13651;SDS011;6899;51.546;6.912;2023-04-24T11:59:42;6.72;;;4.90;;
13651;SDS011;6899;51.546;6.912;2023-04-24T12:02:17;6.90;;;3.78;;
13651;SDS011;6899;51.546;6.912;2023-04-24T12:04:48;18.13;;;10.25;;
13651;SDS011;6899;51.546;6.912;2023-04-24T12:07:14;8.25;;;3.63;;
13651;SDS011;6899;51.546;6.912;2023-04-24T12:09:41;10.30;;;5.22;;
13651;SDS011;6899;51.546;6.912;2023-04-24T12:12:10;8.30;;;5.40;;
13651;SDS011;6899;51.546;6.912;2023-04-24T12:14:47;7.60;;;3.83;;
13651;SDS011;6899;51.546;6.912;2023-04-24T12:17:15;6.22;;;3.92;;
13651;SDS011;6899;51.546;6.912;2023-04-24T12:19:47;8.52;;;4.05;;
13651;SDS011;6899;51.546;6.912;2023-04-24T12:22:15;14.57;;;5.85;;
13651;SDS011;6899;51.546;6.912;2023-04-24T12:24:55;6.32;;;3.58;;
13651;SDS011;6899;51.546;6.912;2023-04-24T12:27:28;9.18;;;4.40;;
13651;SDS011;6899;51.546;6.912;2023-04-24T12:29:56;9.43;;;4.53;;
13651;SDS011;6899;51.546;6.912;2023-04-24T12:32:23;8.50;;;4.43;;
13651;SDS011;6899;51.546;6.912;2023-04-24T12:34:52;5.43;;;3.85;;
13651;SDS011;6899;51.546;6.912;2023-04-24T12:37:20;6.72;;;4.30;;
13651;SDS011;6899;51.546;6.912;2023-04-24T12:39:58;6.38;;;3.72;;
13651;SDS011;6899;51.546;6.912;2023-04-24T12:42:26;6.95;;;3.20;;
13651;SDS011;6899;51.546;6.912;2023-04-24T12:44:55;6.85;;;3.40;;
13651;SDS011;6899;51.546;6.912;2023-04-24T12:47:23;5.18;;;2.75;;
13651;SDS011;6899;51.546;6.912;2023-04-24T12:49:50;5.93;;;3.20;;
13651;SDS011;6899;51.546;6.912;2023-04-24T12:52:20;4.70;;;2.67;;
13651;SDS011;6899;51.546;6.912;2023-04-24T12:54:47;4.47;;;2.40;;
13651;SDS011;6899;51.546;6.912;2023-04-24T12:57:14;3.92;;;2.25;;
13651;SDS011;6899;51.546;6.912;2023-04-24T12:59:40;5.95;;;2.30;;
13651;SDS011;6899;51.546;6.912;2023-04-24T13:02:08;2.95;;;2.20;;
13651;SDS011;6899;51.546;6.912;2023-04-24T13:04:35;6.15;;;2.85;;
13651;SDS011;6899;51.546;6.912;2023-04-24T13:07:03;3.45;;;2.15;;
13651;SDS011;6899;51.546;6.912;2023-04-24T13:09:33;4.85;;;2.05;;
13651;SDS011;6899;51.546;6.912;2023-04-24T13:12:01;4.50;;;2.60;;
13651;SDS011;6899;51.546;6.912;2023-04-24T13:14:31;2.85;;;2.15;;
13651;SDS011;6899;51.546;6.912;2023-04-24T13:16:58;6.13;;;2.80;;
13651;SDS011;6899;51.546;6.912;2023-04-24T13:19:28;3.03;;;2.58;;
13651;SDS011;6899;51.546;6.912;2023-04-24T13:21:55;4.72;;;2.35;;
13651;SDS011;6899;51.546;6.912;2023-04-24T13:24:25;3.35;;;2.85;;
13651;SDS011;6899;51.546;6.912;2023-04-24T13:26:52;4.43;;;3.03;;
13651;SDS011;6899;51.546;6.912;2023-04-24T13:29:19;3.50;;;2.60;;
13651;SDS011;6899;51.546;6.912;2023-04-24T13:31:46;5.85;;;2.70;;
13651;SDS011;6899;51.546;6.912;2023-04-24T13:34:14;3.42;;;2.75;;
13651;SDS011;6899;51.546;6.912;2023-04-24T13:36:46;5.10;;;2.95;;
13651;SDS011;6899;51.546;6.912;2023-04-24T13:39:13;3.10;;;2.33;;
13651;SDS011;6899;51.546;6.912;2023-04-24T13:41:43;5.63;;;2.42;;
13651;SDS011;6899;51.546;6.912;2023-04-24T13:44:10;5.05;;;2.50;;
13651;SDS011;6899;51.546;6.912;2023-04-24T13:46:37;8.27;;;2.60;;
13651;SDS011;6899;51.546;6.912;2023-04-24T13:49:03;4.25;;;2.63;;
13651;SDS011;6899;51.546;6.912;2023-04-24T13:51:30;5.45;;;2.70;;
13651;SDS011;6899;51.546;6.912;2023-04-24T13:53:57;4.45;;;3.35;;
13651;SDS011;6899;51.546;6.912;2023-04-24T13:56:24;6.60;;;2.72;;
13651;SDS011;6899;51.546;6.912;2023-04-24T13:58:53;5.68;;;2.38;;
13651;SDS011;6899;51.546;6.912;2023-04-24T14:01:23;4.85;;;2.55;;
13651;SDS011;6899;51.546;6.912;2023-04-24T14:03:50;3.40;;;2.38;;
13651;SDS011;6899;51.546;6.912;2023-04-24T14:06:17;2.72;;;2.05;;
13651;SDS011;6899;51.546;6.912;2023-04-24T14:08:47;6.32;;;4.55;;
13651;SDS011;6899;51.546;6.912;2023-04-24T14:11:13;3.40;;;1.95;;
13651;SDS011;6899;51.546;6.912;2023-04-24T14:13:41;3.38;;;2.03;;
13651;SDS011;6899;51.546;6.912;2023-04-24T14:16:09;4.43;;;2.42;;
13651;SDS011;6899;51.546;6.912;2023-04-24T14:18:37;3.47;;;2.10;;
13651;SDS011;6899;51.546;6.912;2023-04-24T14:21:06;6.00;;;2.50;;
13651;SDS011;6899;51.546;6.912;2023-04-24T14:23:33;5.43;;;2.47;;
13651;SDS011;6899;51.546;6.912;2023-04-24T14:25:59;3.67;;;2.40;;
13651;SDS011;6899;51.546;6.912;2023-04-24T14:28:26;8.02;;;3.00;;
13651;SDS011;6899;51.546;6.912;2023-04-24T14:30:53;5.70;;;3.35;;
13651;SDS011;6899;51.546;6.912;2023-04-24T14:33:21;4.50;;;3.20;;
13651;SDS011;6899;51.546;6.912;2023-04-24T14:35:48;6.38;;;3.50;;
13651;SDS011;6899;51.546;6.912;2023-04-24T14:38:15;6.57;;;4.00;;
13651;SDS011;6899;51.546;6.912;2023-04-24T14:40:41;6.45;;;4.15;;
13651;SDS011;6899;51.546;6.912;2023-04-24T14:43:08;8.15;;;4.88;;
13651;SDS011;6899;51.546;6.912;2023-04-24T14:45:41;5.72;;;3.95;;
13651;SDS011;6899;51.546;6.912;2023-04-24T14:48:07;6.05;;;4.53;;
13651;SDS011;6899;51.546;6.912;2023-04-24T14:50:37;9.23;;;4.15;;
13651;SDS011;6899;51.546;6.912;2023-04-24T14:53:04;5.15;;;3.55;;
13651;SDS011;6899;51.546;6.912;2023-04-24T14:55:31;5.05;;;3.58;;
13651;SDS011;6899;51.546;6.912;2023-04-24T14:57:58;4.70;;;3.03;;